Portada
METAR-TAF:

METAR-TAF

Aeroports :

Constantina, Algèria

latitud: 36-17N, longitud: 006-37E, altitud: 694 m

Observació

L'informe es va fer fa 27 minuts, a les 23:30 UTC
Vent 5 kt del Nord/Nord-Oest
Temperatura 7°C
Humitat 81%
Pressió 1020 hPa
Visibilitat 10 km o més
Núvols disperses a una alçada de 3000 ft

METAR: DABC 262330Z 33005KT 9999 SCT030 07/04 Q1020

Hora: 00:57 (23:57 UTC)

Pronòstic

L'informe es va fer fa 57 minuts, a les 23:00 UTC
Pronòstic vàlid del 27 a les 00 UTC al 27 a les 24 UTC
Vent 8 kt del Oest/Nord-Oest
Visibilitat 10 km o més
Núvols disperses a una alçada de 3000 ft
Núvols disperses a una alçada de 20000 ft
Probabilitat 30% :
Temporalment
l' 27 a les 02 UTC al 27 a les 07 UTC
Visibilitat: 3000 m
Cel ennuvolat a una alçada de 1000 ft
boirina

TAF: DABC 262300Z 2700/2724 29008KT 9999 SCT030 SCT200 PROB30 TEMPO 2702/2707 3000 BR BKN010

Observacions i pronòstics meteorològics de més de 4000 aeroports (METAR i TAF).

Les estacions disponibles són els punts grocs i vermells al mapa.

Posi el ratolí al punt desitjat per veure el nom de l'estació.

Feu clic per veure les observacions i els pronòstics meteorològics.

Per canviar el mapa: feu clic els botons verds amb una creu de color negre per apropar; al botó verd amb un guió per allunyar la imatge; o en les fletxes verdes per a mapes adjacents.


METAR-TAF: